Floretgracht — PBNS — position and weather

sailwx.info

Track history (hours):
 
Tides and Currents Weather Stations Pressure Air Temp Water Temp Dewpoint Dewpoint Depression Visibility Wind Speed Wind Dir Waves Ship Positions

Floretgracht

Last reported at 2017-Oct-16 18:23 UTC. Time now 2017-Oct-18 02:30 UTC.
Position N 57°38' E 009°29'.

Length 137 m; draft 8.9 m.

Type: Cargo ship. MMSI: 246614000.

Date/timePositionNaut miles runAvg speedWind from/ knotsBaromVisibWave heightAir tempDewpointWater temp
2017-Oct-16 18:23N 57°38' E 009°29'614.0
2017-Oct-16 17:57N 57°41' E 009°39'714.1
2017-Oct-16 17:30N 57°44' E 009°50'713.9
2017-Oct-16 16:59N 57°47' E 010°02'613.2
2017-Oct-16 16:30N 57°48' E 010°14'713.3
2017-Oct-16 16:00N 57°49' E 010°26'612.8
2017-Oct-16 15:30N 57°49' E 010°38'612.1
2017-Oct-16 15:00N 57°47' E 010°48'612.4
2017-Oct-16 14:30N 57°41' E 010°43'3 2.9
2017-Oct-16 13:27N 57°41' E 010°37'0 0.0
2017-Oct-16 12:48N 57°41' E 010°37'0 0.1
2017-Oct-16 12:30N 57°41' E 010°37'0 0.0
2017-Oct-16 11:57N 57°41' E 010°37'0 0.1
2017-Oct-16 11:24N 57°41' E 010°37'0 0.0
2017-Oct-16 10:39N 57°41' E 010°37'0 0.0
2017-Oct-16 10:27N 57°41' E 010°37'0 0.0
2017-Oct-16 09:57N 57°41' E 010°37'0 0.0
2017-Oct-16 09:30N 57°41' E 010°37'0 0.0
2017-Oct-16 09:00N 57°41' E 010°37'0 0.0
2017-Oct-16 08:30N 57°41' E 010°37'0 0.1
2017-Oct-16 08:00N 57°41' E 010°37'3 5.2
2017-Oct-16 07:30N 57°40' E 010°42'713.3
2017-Oct-16 06:59N 57°37' E 010°54'713.8
2017-Oct-16 06:31N 57°34' E 011°05'713.8
2017-Oct-16 05:59N 57°32' E 011°17'613.4
2017-Oct-16 05:31N 57°28' E 011°26'713.7
2017-Oct-16 05:00N 57°21' E 011°31'713.4
2017-Oct-16 04:30N 57°15' E 011°35'713.4
2017-Oct-16 04:00N 57°09' E 011°39'613.2
2017-Oct-16 03:30N 57°03' E 011°43'913.4
2017-Oct-16 02:51N 56°54' E 011°48'512.9
2017-Oct-16 02:29N 56°50' E 011°51'612.4
2017-Oct-16 02:00N 56°44' E 011°52'714.3
2017-Oct-16 01:30N 56°38' E 011°46'814.7
2017-Oct-16 00:58N 56°31' E 011°39'2214.7
2017-Oct-15 23:30N 56°12' E 011°19'4113.9
2017-Oct-15 20:32N 55°34' E 010°51'214.5
2017-Oct-15 20:24N 55°32' E 010°52'614.2
2017-Oct-15 20:00N 55°28' E 010°57'714.2
2017-Oct-15 19:30N 55°21' E 011°02'713.5
2017-Oct-15 19:00N 55°15' E 011°06'5 9.2
2017-Oct-15 18:30N 55°10' E 011°04'714.4
2017-Oct-15 18:00N 55°03' E 011°02'714.2
2017-Oct-15 17:30N 54°57' E 010°57'714.9
2017-Oct-15 17:00N 54°50' E 010°52'714.7
2017-Oct-15 16:31N 54°42' E 010°53'714.6
2017-Oct-15 16:00N 54°38' E 011°04'714.0
2017-Oct-15 15:30N 54°35' E 011°14'714.0
2017-Oct-15 15:00N 54°32' E 011°25'1414.1
2017-Oct-15 14:00N 54°26' E 011°47'714.1
2017-Oct-15 13:30N 54°26' E 011°60'713.1
2017-Oct-15 13:01N 54°27' E 012°11'713.7
2017-Oct-15 12:30N 54°33' E 012°14'713.0
2017-Oct-15 11:56N 54°39' E 012°23'613.5
2017-Oct-15 11:29N 54°42' E 012°32'1013.5
2017-Oct-15 10:46N 54°47' E 012°46'513.8
2017-Oct-15 10:23N 54°49' E 012°55'613.9
2017-Oct-15 09:59N 54°51' E 013°04'714.0
2017-Oct-15 09:29N 54°53' E 013°15'1410.3
2017-Oct-15 08:05N 54°59' E 013°39'113.4
2017-Oct-15 08:01N 54°59' E 013°40'713.6
2017-Oct-15 07:30N 55°01' E 013°52'713.9
2017-Oct-15 07:00N 55°04' E 014°03'714.2
2017-Oct-15 06:30N 55°09' E 014°11'714.2
2017-Oct-15 06:00N 55°15' E 014°19'814.2
2017-Oct-15 05:27N 55°21' E 014°27'614.2
2017-Oct-15 05:01N 55°26' E 014°35'714.1
2017-Oct-15 04:30N 55°30' E 014°45'714.0
2017-Oct-15 04:01N 55°33' E 014°56'714.1
2017-Oct-15 03:30N 55°37' E 015°06'714.1
2017-Oct-15 03:00N 55°40' E 015°17'713.8
2017-Oct-15 02:31N 55°44' E 015°28'713.8
2017-Oct-15 02:01N 55°47' E 015°39'713.6
2017-Oct-15 01:30N 55°50' E 015°49'713.8
2017-Oct-15 01:00N 55°54' E 015°60'713.9
2017-Oct-15 00:30N 55°57' E 016°11'713.9
2017-Oct-15 00:01N 56°01' E 016°21'714.1
2017-Oct-14 23:30N 56°05' E 016°32'714.0
2017-Oct-14 23:00N 56°08' E 016°43'713.9
2017-Oct-14 22:30N 56°14' E 016°48'5114.3
2017-Oct-14 18:54N 57°02' E 017°22'17813.4
2017-Oct-14 05:38N 59°42' E 019°48'313.3
2017-Oct-14 05:23N 59°45' E 019°44'513.2
2017-Oct-14 05:00N 59°49' E 019°38'713.2
2017-Oct-14 04:30N 59°54' E 019°29'713.2
2017-Oct-14 04:00N 59°59' E 019°21'713.3
2017-Oct-14 03:30N 60°04' E 019°12'713.4
2017-Oct-14 03:00N 60°09' E 019°03'612.4
2017-Oct-14 02:30N 60°15' E 019°00'612.8
2017-Oct-14 02:00N 60°21' E 018°60'  
Track history (hours):
 
Tides and Currents Weather Stations Pressure Air Temp Water Temp Dewpoint Dewpoint Depression Visibility Wind Speed Wind Dir Waves Ship Positions

Floretgracht

Last reported at 2017-Oct-16 18:23 UTC. Time now 2017-Oct-18 02:30 UTC.
Position N 57°38' E 009°29'.

Length 137 m; draft 8.9 m.

Type: Cargo ship. MMSI: 246614000.

Date/timePositionNaut miles runAvg speedWind from/ knotsBaromVisibWave heightAir tempDewpointWater temp
2017-Oct-16 18:23N 57°38' E 009°29'614.0
2017-Oct-16 17:57N 57°41' E 009°39'714.1
2017-Oct-16 17:30N 57°44' E 009°50'713.9
2017-Oct-16 16:59N 57°47' E 010°02'613.2
2017-Oct-16 16:30N 57°48' E 010°14'713.3
2017-Oct-16 16:00N 57°49' E 010°26'612.8
2017-Oct-16 15:30N 57°49' E 010°38'612.1
2017-Oct-16 15:00N 57°47' E 010°48'612.4
2017-Oct-16 14:30N 57°41' E 010°43'3 2.9
2017-Oct-16 13:27N 57°41' E 010°37'0 0.0
2017-Oct-16 12:48N 57°41' E 010°37'0 0.1
2017-Oct-16 12:30N 57°41' E 010°37'0 0.0
2017-Oct-16 11:57N 57°41' E 010°37'0 0.1
2017-Oct-16 11:24N 57°41' E 010°37'0 0.0
2017-Oct-16 10:39N 57°41' E 010°37'0 0.0
2017-Oct-16 10:27N 57°41' E 010°37'0 0.0
2017-Oct-16 09:57N 57°41' E 010°37'0 0.0
2017-Oct-16 09:30N 57°41' E 010°37'0 0.0
2017-Oct-16 09:00N 57°41' E 010°37'0 0.0
2017-Oct-16 08:30N 57°41' E 010°37'0 0.1
2017-Oct-16 08:00N 57°41' E 010°37'3 5.2
2017-Oct-16 07:30N 57°40' E 010°42'713.3
2017-Oct-16 06:59N 57°37' E 010°54'713.8
2017-Oct-16 06:31N 57°34' E 011°05'713.8
2017-Oct-16 05:59N 57°32' E 011°17'613.4
2017-Oct-16 05:31N 57°28' E 011°26'713.7
2017-Oct-16 05:00N 57°21' E 011°31'713.4
2017-Oct-16 04:30N 57°15' E 011°35'713.4
2017-Oct-16 04:00N 57°09' E 011°39'613.2
2017-Oct-16 03:30N 57°03' E 011°43'913.4
2017-Oct-16 02:51N 56°54' E 011°48'512.9
2017-Oct-16 02:29N 56°50' E 011°51'612.4
2017-Oct-16 02:00N 56°44' E 011°52'714.3
2017-Oct-16 01:30N 56°38' E 011°46'814.7
2017-Oct-16 00:58N 56°31' E 011°39'2214.7
2017-Oct-15 23:30N 56°12' E 011°19'4113.9
2017-Oct-15 20:32N 55°34' E 010°51'214.5
2017-Oct-15 20:24N 55°32' E 010°52'614.2
2017-Oct-15 20:00N 55°28' E 010°57'714.2
2017-Oct-15 19:30N 55°21' E 011°02'713.5
2017-Oct-15 19:00N 55°15' E 011°06'5 9.2
2017-Oct-15 18:30N 55°10' E 011°04'714.4
2017-Oct-15 18:00N 55°03' E 011°02'714.2
2017-Oct-15 17:30N 54°57' E 010°57'714.9
2017-Oct-15 17:00N 54°50' E 010°52'714.7
2017-Oct-15 16:31N 54°42' E 010°53'714.6
2017-Oct-15 16:00N 54°38' E 011°04'714.0
2017-Oct-15 15:30N 54°35' E 011°14'714.0
2017-Oct-15 15:00N 54°32' E 011°25'1414.1
2017-Oct-15 14:00N 54°26' E 011°47'714.1
2017-Oct-15 13:30N 54°26' E 011°60'713.1
2017-Oct-15 13:01N 54°27' E 012°11'713.7
2017-Oct-15 12:30N 54°33' E 012°14'713.0
2017-Oct-15 11:56N 54°39' E 012°23'613.5
2017-Oct-15 11:29N 54°42' E 012°32'1013.5
2017-Oct-15 10:46N 54°47' E 012°46'513.8
2017-Oct-15 10:23N 54°49' E 012°55'613.9
2017-Oct-15 09:59N 54°51' E 013°04'714.0
2017-Oct-15 09:29N 54°53' E 013°15'1410.3
2017-Oct-15 08:05N 54°59' E 013°39'113.4
2017-Oct-15 08:01N 54°59' E 013°40'713.6
2017-Oct-15 07:30N 55°01' E 013°52'713.9
2017-Oct-15 07:00N 55°04' E 014°03'714.2
2017-Oct-15 06:30N 55°09' E 014°11'714.2
2017-Oct-15 06:00N 55°15' E 014°19'814.2
2017-Oct-15 05:27N 55°21' E 014°27'614.2
2017-Oct-15 05:01N 55°26' E 014°35'714.1
2017-Oct-15 04:30N 55°30' E 014°45'714.0
2017-Oct-15 04:01N 55°33' E 014°56'714.1
2017-Oct-15 03:30N 55°37' E 015°06'714.1
2017-Oct-15 03:00N 55°40' E 015°17'713.8
2017-Oct-15 02:31N 55°44' E 015°28'713.8
2017-Oct-15 02:01N 55°47' E 015°39'713.6
2017-Oct-15 01:30N 55°50' E 015°49'713.8
2017-Oct-15 01:00N 55°54' E 015°60'713.9
2017-Oct-15 00:30N 55°57' E 016°11'713.9
2017-Oct-15 00:01N 56°01' E 016°21'714.1
2017-Oct-14 23:30N 56°05' E 016°32'714.0
2017-Oct-14 23:00N 56°08' E 016°43'713.9
2017-Oct-14 22:30N 56°14' E 016°48'5114.3
2017-Oct-14 18:54N 57°02' E 017°22'17813.4
2017-Oct-14 05:38N 59°42' E 019°48'313.3
2017-Oct-14 05:23N 59°45' E 019°44'513.2
2017-Oct-14 05:00N 59°49' E 019°38'713.2
2017-Oct-14 04:30N 59°54' E 019°29'713.2
2017-Oct-14 04:00N 59°59' E 019°21'713.3
2017-Oct-14 03:30N 60°04' E 019°12'713.4
2017-Oct-14 03:00N 60°09' E 019°03'612.4
2017-Oct-14 02:30N 60°15' E 019°00'612.8
2017-Oct-14 02:00N 60°21' E 018°60'  

Dump ship's entire track history